sensor_id;sensor_type;location;lat;lon;timestamp;pressure;altitude;pressure_sealevel;temperature;humidity
45357;BME280;31092;51.924;21.448;2024-01-30T00:00:14;101538.66;;;-0.21;100.00
45357;BME280;31092;51.924;21.448;2024-01-30T00:02:40;101590.13;;;0.14;100.00
45357;BME280;31092;51.924;21.448;2024-01-30T00:05:06;101680.19;;;0.56;100.00
45357;BME280;31092;51.924;21.448;2024-01-30T00:07:31;101531.59;;;-0.21;100.00
45357;BME280;31092;51.924;21.448;2024-01-30T00:09:57;101590.69;;;0.22;100.00
45357;BME280;31092;51.924;21.448;2024-01-30T00:12:22;101658.59;;;0.65;100.00
45357;BME280;31092;51.924;21.448;2024-01-30T00:14:48;101623.88;;;0.51;100.00
45357;BME280;31092;51.924;21.448;2024-01-30T00:17:13;101640.16;;;0.62;100.00
45357;BME280;31092;51.924;21.448;2024-01-30T00:19:39;101564.09;;;0.23;100.00
45357;BME280;31092;51.924;21.448;2024-01-30T00:22:05;101582.53;;;0.27;100.00
45357;BME280;31092;51.924;21.448;2024-01-30T00:24:31;101556.88;;;0.07;100.00
45357;BME280;31092;51.924;21.448;2024-01-30T00:26:56;101634.59;;;0.48;100.00
45357;BME280;31092;51.924;21.448;2024-01-30T00:29:21;101558.81;;;0.03;100.00
45357;BME280;31092;51.924;21.448;2024-01-30T00:31:48;101616.31;;;0.42;100.00
45357;BME280;31092;51.924;21.448;2024-01-30T00:34:13;101542.13;;;0.01;100.00
45357;BME280;31092;51.924;21.448;2024-01-30T00:36:39;101603.84;;;0.44;100.00
45357;BME280;31092;51.924;21.448;2024-01-30T00:39:04;101588.22;;;0.38;100.00
45357;BME280;31092;51.924;21.448;2024-01-30T00:41:32;101515.09;;;0.13;100.00
45357;BME280;31092;51.924;21.448;2024-01-30T00:43:58;101630.53;;;0.80;100.00
45357;BME280;31092;51.924;21.448;2024-01-30T00:46:23;101492.75;;;0.00;100.00
45357;BME280;31092;51.924;21.448;2024-01-30T00:48:48;101627.50;;;0.69;100.00
45357;BME280;31092;51.924;21.448;2024-01-30T00:51:14;101482.75;;;-0.14;100.00
45357;BME280;31092;51.924;21.448;2024-01-30T00:53:40;101617.41;;;0.57;100.00
45357;BME280;31092;51.924;21.448;2024-01-30T00:56:07;101605.19;;;0.54;100.00
45357;BME280;31092;51.924;21.448;2024-01-30T00:58:33;101587.09;;;0.43;100.00
45357;BME280;31092;51.924;21.448;2024-01-30T01:00:58;101618.34;;;0.56;100.00
45357;BME280;31092;51.924;21.448;2024-01-30T01:03:24;101603.72;;;0.47;100.00
45357;BME280;31092;51.924;21.448;2024-01-30T01:05:50;101505.56;;;-0.11;100.00
45357;BME280;31092;51.924;21.448;2024-01-30T01:08:15;101516.97;;;-0.09;100.00
45357;BME280;31092;51.924;21.448;2024-01-30T01:10:41;101508.22;;;-0.11;100.00
45357;BME280;31092;51.924;21.448;2024-01-30T01:13:06;101571.78;;;0.30;100.00
45357;BME280;31092;51.924;21.448;2024-01-30T01:15:31;101513.25;;;-0.05;100.00
45357;BME280;31092;51.924;21.448;2024-01-30T01:17:57;101620.22;;;0.54;100.00
45357;BME280;31092;51.924;21.448;2024-01-30T01:20:23;101485.69;;;-0.21;100.00
45357;BME280;31092;51.924;21.448;2024-01-30T01:22:48;101611.47;;;0.52;100.00
45357;BME280;31092;51.924;21.448;2024-01-30T01:25:14;101505.56;;;-0.11;100.00
45357;BME280;31092;51.924;21.448;2024-01-30T01:27:39;101530.59;;;0.02;100.00
45357;BME280;31092;51.924;21.448;2024-01-30T01:30:10;101605.53;;;0.46;100.00
45357;BME280;31092;51.924;21.448;2024-01-30T01:32:37;101600.88;;;0.31;100.00
45357;BME280;31092;51.924;21.448;2024-01-30T01:35:04;101515.97;;;-0.07;100.00
45357;BME280;31092;51.924;21.448;2024-01-30T01:37:31;101497.09;;;-0.19;100.00
45357;BME280;31092;51.924;21.448;2024-01-30T01:39:56;101437.59;;;-0.52;100.00
45357;BME280;31092;51.924;21.448;2024-01-30T01:42:22;101598.44;;;0.47;100.00
45357;BME280;31092;51.924;21.448;2024-01-30T01:44:47;101480.03;;;-0.12;100.00
45357;BME280;31092;51.924;21.448;2024-01-30T01:47:14;101572.78;;;0.47;100.00
45357;BME280;31092;51.924;21.448;2024-01-30T01:49:39;101606.03;;;0.55;100.00
45357;BME280;31092;51.924;21.448;2024-01-30T01:52:06;101480.28;;;-0.18;100.00
45357;BME280;31092;51.924;21.448;2024-01-30T01:54:32;101545.69;;;0.20;100.00
45357;BME280;31092;51.924;21.448;2024-01-30T01:56:57;101580.13;;;0.41;100.00
45357;BME280;31092;51.924;21.448;2024-01-30T01:59:23;101569.00;;;0.33;100.00
45357;BME280;31092;51.924;21.448;2024-01-30T02:01:50;101517.34;;;0.02;100.00
45357;BME280;31092;51.924;21.448;2024-01-30T02:04:18;101559.63;;;0.26;100.00
45357;BME280;31092;51.924;21.448;2024-01-30T02:06:44;101568.22;;;0.31;100.00
45357;BME280;31092;51.924;21.448;2024-01-30T02:09:09;101581.19;;;0.37;100.00
45357;BME280;31092;51.924;21.448;2024-01-30T02:11:35;101473.66;;;-0.29;100.00
45357;BME280;31092;51.924;21.448;2024-01-30T02:14:04;101468.78;;;-0.38;100.00
45357;BME280;31092;51.924;21.448;2024-01-30T02:16:31;101479.16;;;-0.33;100.00
45357;BME280;31092;51.924;21.448;2024-01-30T02:18:56;101561.72;;;0.17;100.00
45357;BME280;31092;51.924;21.448;2024-01-30T02:21:22;101547.16;;;0.07;100.00
45357;BME280;31092;51.924;21.448;2024-01-30T02:23:48;101510.81;;;-0.10;100.00
45357;BME280;31092;51.924;21.448;2024-01-30T02:26:15;101496.84;;;-0.13;100.00
45357;BME280;31092;51.924;21.448;2024-01-30T02:28:40;101482.94;;;-0.18;100.00
45357;BME280;31092;51.924;21.448;2024-01-30T02:31:05;101569.75;;;0.36;100.00
45357;BME280;31092;51.924;21.448;2024-01-30T02:33:31;101579.31;;;0.39;100.00
45357;BME280;31092;51.924;21.448;2024-01-30T02:35:57;101534.22;;;0.20;100.00
45357;BME280;31092;51.924;21.448;2024-01-30T02:38:23;101483.59;;;-0.13;100.00
45357;BME280;31092;51.924;21.448;2024-01-30T02:40:52;101537.59;;;0.23;100.00
45357;BME280;31092;51.924;21.448;2024-01-30T02:43:17;101565.94;;;0.42;100.00
45357;BME280;31092;51.924;21.448;2024-01-30T02:45:43;101552.31;;;0.31;100.00
45357;BME280;31092;51.924;21.448;2024-01-30T02:48:08;101577.59;;;0.58;100.00
45357;BME280;31092;51.924;21.448;2024-01-30T02:50:34;101585.53;;;0.58;100.00
45357;BME280;31092;51.924;21.448;2024-01-30T02:52:59;101590.75;;;0.60;100.00
45357;BME280;31092;51.924;21.448;2024-01-30T02:55:25;101488.47;;;-0.04;100.00
45357;BME280;31092;51.924;21.448;2024-01-30T02:57:50;101571.38;;;0.39;100.00
45357;BME280;31092;51.924;21.448;2024-01-30T03:00:16;101554.31;;;0.26;100.00
45357;BME280;31092;51.924;21.448;2024-01-30T03:02:42;101489.16;;;-0.19;100.00
45357;BME280;31092;51.924;21.448;2024-01-30T03:05:08;101479.75;;;-0.27;100.00
45357;BME280;31092;51.924;21.448;2024-01-30T03:07:34;101544.31;;;0.12;100.00
45357;BME280;31092;51.924;21.448;2024-01-30T03:09:59;101564.22;;;0.20;100.00
45357;BME280;31092;51.924;21.448;2024-01-30T03:12:25;101507.44;;;-0.13;100.00
45357;BME280;31092;51.924;21.448;2024-01-30T03:14:50;101528.16;;;-0.03;100.00
45357;BME280;31092;51.924;21.448;2024-01-30T03:17:16;101574.91;;;0.19;100.00
45357;BME280;31092;51.924;21.448;2024-01-30T03:19:42;101576.72;;;0.18;100.00
45357;BME280;31092;51.924;21.448;2024-01-30T03:22:07;101507.22;;;-0.29;100.00
45357;BME280;31092;51.924;21.448;2024-01-30T03:24:33;101582.38;;;0.09;100.00
45357;BME280;31092;51.924;21.448;2024-01-30T03:26:58;101552.34;;;-0.10;100.00
45357;BME280;31092;51.924;21.448;2024-01-30T03:29:24;101518.75;;;-0.30;100.00
45357;BME280;31092;51.924;21.448;2024-01-30T03:31:50;101480.28;;;-0.59;100.00
45357;BME280;31092;51.924;21.448;2024-01-30T03:34:15;101579.00;;;0.06;100.00
45357;BME280;31092;51.924;21.448;2024-01-30T03:36:41;101601.53;;;0.16;100.00
45357;BME280;31092;51.924;21.448;2024-01-30T03:39:06;101572.94;;;0.04;100.00
45357;BME280;31092;51.924;21.448;2024-01-30T03:41:32;101573.78;;;0.04;100.00
45357;BME280;31092;51.924;21.448;2024-01-30T03:43:57;101587.81;;;0.06;100.00
45357;BME280;31092;51.924;21.448;2024-01-30T03:46:23;101578.66;;;-0.07;100.00
45357;BME280;31092;51.924;21.448;2024-01-30T03:48:49;101496.03;;;-0.56;100.00
45357;BME280;31092;51.924;21.448;2024-01-30T03:51:15;101497.84;;;-0.58;100.00
45357;BME280;31092;51.924;21.448;2024-01-30T03:53:44;101580.56;;;-0.11;100.00
45357;BME280;31092;51.924;21.448;2024-01-30T03:56:11;101610.16;;;0.01;100.00
45357;BME280;31092;51.924;21.448;2024-01-30T03:58:38;101585.88;;;-0.11;100.00
45357;BME280;31092;51.924;21.448;2024-01-30T04:01:03;101583.50;;;-0.17;100.00
45357;BME280;31092;51.924;21.448;2024-01-30T04:03:29;101503.34;;;-0.63;100.00
45357;BME280;31092;51.924;21.448;2024-01-30T04:05:54;101499.28;;;-0.72;100.00
45357;BME280;31092;51.924;21.448;2024-01-30T04:08:20;101484.41;;;-0.74;100.00
45357;BME280;31092;51.924;21.448;2024-01-30T04:10:46;101481.94;;;-0.79;100.00
45357;BME280;31092;51.924;21.448;2024-01-30T04:13:12;101607.88;;;-0.09;100.00
45357;BME280;31092;51.924;21.448;2024-01-30T04:15:37;101582.81;;;-0.22;100.00
45357;BME280;31092;51.924;21.448;2024-01-30T04:18:03;101492.34;;;-0.74;100.00
45357;BME280;31092;51.924;21.448;2024-01-30T04:20:29;101480.31;;;-0.81;100.00
45357;BME280;31092;51.924;21.448;2024-01-30T04:22:55;101550.84;;;-0.38;100.00
45357;BME280;31092;51.924;21.448;2024-01-30T04:25:20;101577.00;;;-0.30;100.00
45357;BME280;31092;51.924;21.448;2024-01-30T04:27:46;101611.47;;;-0.10;100.00
45357;BME280;31092;51.924;21.448;2024-01-30T04:30:11;101553.28;;;-0.33;100.00
45357;BME280;31092;51.924;21.448;2024-01-30T04:32:37;101590.63;;;-0.19;100.00
45357;BME280;31092;51.924;21.448;2024-01-30T04:35:03;101577.97;;;-0.33;100.00
45357;BME280;31092;51.924;21.448;2024-01-30T04:37:28;101546.19;;;-0.53;100.00
45357;BME280;31092;51.924;21.448;2024-01-30T04:39:54;101558.38;;;-0.49;100.00
45357;BME280;31092;51.924;21.448;2024-01-30T04:42:20;101568.13;;;-0.51;100.00
45357;BME280;31092;51.924;21.448;2024-01-30T04:44:45;101478.56;;;-1.04;100.00
45357;BME280;31092;51.924;21.448;2024-01-30T04:47:10;101575.47;;;-0.58;100.00
45357;BME280;31092;51.924;21.448;2024-01-30T04:49:38;101517.16;;;-0.99;100.00
45357;BME280;31092;51.924;21.448;2024-01-30T04:52:05;101492.28;;;-1.16;100.00
45357;BME280;31092;51.924;21.448;2024-01-30T04:54:31;101592.47;;;-0.63;100.00
45357;BME280;31092;51.924;21.448;2024-01-30T04:56:56;101459.00;;;-1.44;100.00
45357;BME280;31092;51.924;21.448;2024-01-30T04:59:22;101478.75;;;-1.31;100.00
45357;BME280;31092;51.924;21.448;2024-01-30T05:01:47;101602.31;;;-0.67;100.00
45357;BME280;31092;51.924;21.448;2024-01-30T05:04:12;101515.34;;;-1.20;100.00
45357;BME280;31092;51.924;21.448;2024-01-30T05:06:38;101611.53;;;-0.77;100.00
45357;BME280;31092;51.924;21.448;2024-01-30T05:09:03;101612.06;;;-0.69;100.00
45357;BME280;31092;51.924;21.448;2024-01-30T05:11:30;101537.34;;;-1.19;100.00
45357;BME280;31092;51.924;21.448;2024-01-30T05:13:55;101565.69;;;-1.00;100.00
45357;BME280;31092;51.924;21.448;2024-01-30T05:16:20;101556.41;;;-1.11;100.00
45357;BME280;31092;51.924;21.448;2024-01-30T05:18:46;101622.75;;;-0.70;100.00
45357;BME280;31092;51.924;21.448;2024-01-30T05:21:11;101582.88;;;-0.89;100.00
45357;BME280;31092;51.924;21.448;2024-01-30T05:23:37;101614.22;;;-0.79;100.00
45357;BME280;31092;51.924;21.448;2024-01-30T05:26:02;101586.69;;;-0.97;100.00
45357;BME280;31092;51.924;21.448;2024-01-30T05:28:31;101566.81;;;-1.07;100.00
45357;BME280;31092;51.924;21.448;2024-01-30T05:30:57;101525.69;;;-1.37;100.00
45357;BME280;31092;51.924;21.448;2024-01-30T05:33:22;101406.00;;;-2.10;100.00
45357;BME280;31092;51.924;21.448;2024-01-30T05:35:48;101531.16;;;-1.42;100.00
45357;BME280;31092;51.924;21.448;2024-01-30T05:38:15;101517.25;;;-1.47;100.00
45357;BME280;31092;51.924;21.448;2024-01-30T05:40:40;101593.09;;;-1.02;100.00
45357;BME280;31092;51.924;21.448;2024-01-30T05:43:05;101576.94;;;-1.18;100.00
45357;BME280;31092;51.924;21.448;2024-01-30T05:45:31;101490.44;;;-1.60;100.00
45357;BME280;31092;51.924;21.448;2024-01-30T05:47:56;101609.47;;;-0.92;100.00
45357;BME280;31092;51.924;21.448;2024-01-30T05:50:22;101580.50;;;-1.19;100.00
45357;BME280;31092;51.924;21.448;2024-01-30T05:52:48;101510.66;;;-1.59;100.00
45357;BME280;31092;51.924;21.448;2024-01-30T05:55:14;101480.53;;;-1.78;100.00
45357;BME280;31092;51.924;21.448;2024-01-30T05:57:39;101490.88;;;-1.72;100.00
45357;BME280;31092;51.924;21.448;2024-01-30T06:00:05;101604.34;;;-0.97;100.00
45357;BME280;31092;51.924;21.448;2024-01-30T06:02:31;101515.41;;;-1.45;100.00
45357;BME280;31092;51.924;21.448;2024-01-30T06:04:57;101476.69;;;-1.70;100.00
45357;BME280;31092;51.924;21.448;2024-01-30T06:07:22;101491.59;;;-1.67;100.00
45357;BME280;31092;51.924;21.448;2024-01-30T06:09:47;101564.88;;;-1.25;100.00
45357;BME280;31092;51.924;21.448;2024-01-30T06:12:13;101614.63;;;-0.89;100.00
45357;BME280;31092;51.924;21.448;2024-01-30T06:14:39;101518.28;;;-1.51;100.00
45357;BME280;31092;51.924;21.448;2024-01-30T06:17:05;101574.28;;;-1.18;100.00
45357;BME280;31092;51.924;21.448;2024-01-30T06:19:31;101521.84;;;-1.52;100.00
45357;BME280;31092;51.924;21.448;2024-01-30T06:21:56;101524.13;;;-1.43;100.00
45357;BME280;31092;51.924;21.448;2024-01-30T06:24:22;101596.53;;;-1.00;100.00
45357;BME280;31092;51.924;21.448;2024-01-30T06:26:47;101528.44;;;-1.40;100.00
45357;BME280;31092;51.924;21.448;2024-01-30T06:29:13;101506.75;;;-1.49;100.00
45357;BME280;31092;51.924;21.448;2024-01-30T06:31:43;101558.13;;;-1.10;100.00
45357;BME280;31092;51.924;21.448;2024-01-30T06:34:11;101537.34;;;-1.19;100.00
45357;BME280;31092;51.924;21.448;2024-01-30T06:36:37;101564.94;;;-1.03;100.00
45357;BME280;31092;51.924;21.448;2024-01-30T06:39:03;101489.00;;;-1.45;100.00
45357;BME280;31092;51.924;21.448;2024-01-30T06:41:29;101567.41;;;-0.99;100.00
45357;BME280;31092;51.924;21.448;2024-01-30T06:43:55;101482.78;;;-1.44;100.00
45357;BME280;31092;51.924;21.448;2024-01-30T06:46:21;101586.00;;;-0.78;100.00
45357;BME280;31092;51.924;21.448;2024-01-30T06:48:46;101578.00;;;-0.77;100.00
45357;BME280;31092;51.924;21.448;2024-01-30T06:51:12;101588.06;;;-0.64;100.00
45357;BME280;31092;51.924;21.448;2024-01-30T06:53:37;101516.94;;;-0.94;100.00
45357;BME280;31092;51.924;21.448;2024-01-30T06:56:03;101592.69;;;-0.47;100.00
45357;BME280;31092;51.924;21.448;2024-01-30T06:58:29;101465.88;;;-1.18;100.00
45357;BME280;31092;51.924;21.448;2024-01-30T07:00:55;101560.75;;;-0.65;100.00
45357;BME280;31092;51.924;21.448;2024-01-30T07:03:21;101436.56;;;-1.34;100.00
45357;BME280;31092;51.924;21.448;2024-01-30T07:05:47;101573.50;;;-0.53;100.00
45357;BME280;31092;51.924;21.448;2024-01-30T07:08:12;101487.00;;;-0.94;100.00
45357;BME280;31092;51.924;21.448;2024-01-30T07:10:37;101452.44;;;-1.12;100.00
45357;BME280;31092;51.924;21.448;2024-01-30T07:13:03;101548.50;;;-0.45;100.00
45357;BME280;31092;51.924;21.448;2024-01-30T07:15:30;101456.13;;;-0.94;100.00
45357;BME280;31092;51.924;21.448;2024-01-30T07:17:55;101473.34;;;-0.84;100.00
45357;BME280;31092;51.924;21.448;2024-01-30T07:20:21;101578.22;;;-0.17;100.00
45357;BME280;31092;51.924;21.448;2024-01-30T07:22:46;101478.94;;;-0.69;100.00
45357;BME280;31092;51.924;21.448;2024-01-30T07:25:12;101456.16;;;-0.74;100.00
45357;BME280;31092;51.924;21.448;2024-01-30T07:27:48;101540.19;;;-0.16;100.00
45357;BME280;31092;51.924;21.448;2024-01-30T07:30:13;101491.66;;;-0.37;100.00
45357;BME280;31092;51.924;21.448;2024-01-30T07:32:39;101444.88;;;-0.57;100.00
45357;BME280;31092;51.924;21.448;2024-01-30T07:35:04;101466.03;;;-0.36;100.00
45357;BME280;31092;51.924;21.448;2024-01-30T07:37:30;101576.59;;;0.21;100.00
45357;BME280;31092;51.924;21.448;2024-01-30T07:39:55;101473.13;;;-0.16;100.00
45357;BME280;31092;51.924;21.448;2024-01-30T07:42:21;101567.25;;;0.52;100.00
45357;BME280;31092;51.924;21.448;2024-01-30T07:44:46;101559.25;;;0.54;100.00
45357;BME280;31092;51.924;21.448;2024-01-30T07:47:12;101550.28;;;0.56;100.00
45357;BME280;31092;51.924;21.448;2024-01-30T07:49:37;101453.56;;;0.07;100.00
45357;BME280;31092;51.924;21.448;2024-01-30T07:52:03;101549.41;;;0.75;100.00
45357;BME280;31092;51.924;21.448;2024-01-30T07:54:28;101475.91;;;0.40;100.00
45357;BME280;31092;51.924;21.448;2024-01-30T07:56:54;101576.97;;;1.10;100.00
45357;BME280;31092;51.924;21.448;2024-01-30T07:59:20;101558.97;;;1.16;100.00
45357;BME280;31092;51.924;21.448;2024-01-30T08:01:49;101544.69;;;1.19;100.00
45357;BME280;31092;51.924;21.448;2024-01-30T08:04:15;101532.13;;;1.23;100.00
45357;BME280;31092;51.924;21.448;2024-01-30T08:06:40;101543.56;;;1.42;100.00
45357;BME280;31092;51.924;21.448;2024-01-30T08:09:05;101444.25;;;0.92;100.00
45357;BME280;31092;51.924;21.448;2024-01-30T08:11:32;101405.16;;;0.79;100.00
45357;BME280;31092;51.924;21.448;2024-01-30T08:13:57;101464.94;;;1.22;100.00
45357;BME280;31092;51.924;21.448;2024-01-30T08:16:23;101463.22;;;1.38;100.00
45357;BME280;31092;51.924;21.448;2024-01-30T08:18:48;101552.91;;;2.03;100.00
45357;BME280;31092;51.924;21.448;2024-01-30T08:21:13;101534.78;;;2.11;100.00
45357;BME280;31092;51.924;21.448;2024-01-30T08:23:39;101457.91;;;1.73;100.00
45357;BME280;31092;51.924;21.448;2024-01-30T08:26:05;101551.69;;;2.43;100.00
45357;BME280;31092;51.924;21.448;2024-01-30T08:28:31;101547.09;;;2.62;100.00
45357;BME280;31092;51.924;21.448;2024-01-30T08:30:56;101446.13;;;2.12;100.00
45357;BME280;31092;51.924;21.448;2024-01-30T08:33:21;101532.47;;;2.71;100.00
45357;BME280;31092;51.924;21.448;2024-01-30T08:35:47;101507.22;;;2.78;100.00
45357;BME280;31092;51.924;21.448;2024-01-30T08:38:12;101547.31;;;3.23;100.00
45357;BME280;31092;51.924;21.448;2024-01-30T08:40:38;101521.56;;;3.23;100.00
45357;BME280;31092;51.924;21.448;2024-01-30T08:43:03;101542.75;;;3.41;100.00
45357;BME280;31092;51.924;21.448;2024-01-30T08:45:29;101478.63;;;3.14;100.00
45357;BME280;31092;51.924;21.448;2024-01-30T08:47:55;101481.03;;;3.18;100.00
45357;BME280;31092;51.924;21.448;2024-01-30T08:50:21;101554.22;;;3.73;100.00
45357;BME280;31092;51.924;21.448;2024-01-30T08:52:46;101553.91;;;3.93;100.00
45357;BME280;31092;51.924;21.448;2024-01-30T08:55:12;101532.47;;;3.95;100.00
45357;BME280;31092;51.924;21.448;2024-01-30T08:57:37;101558.56;;;4.20;100.00
45357;BME280;31092;51.924;21.448;2024-01-30T09:00:03;101479.81;;;3.98;100.00
45357;BME280;31092;51.924;21.448;2024-01-30T09:02:32;101540.09;;;4.45;100.00
45357;BME280;31092;51.924;21.448;2024-01-30T09:04:57;101472.63;;;4.15;100.00
45357;BME280;31092;51.924;21.448;2024-01-30T09:07:23;101431.94;;;3.97;100.00
45357;BME280;31092;51.924;21.448;2024-01-30T09:09:48;101562.28;;;4.89;100.00
45357;BME280;31092;51.924;21.448;2024-01-30T09:12:14;101568.63;;;5.15;100.00
45357;BME280;31092;51.924;21.448;2024-01-30T09:14:40;101543.94;;;5.11;100.00
45357;BME280;31092;51.924;21.448;2024-01-30T09:17:06;101612.78;;;5.62;100.00
45357;BME280;31092;51.924;21.448;2024-01-30T09:19:31;101621.06;;;5.71;100.00
45357;BME280;31092;51.924;21.448;2024-01-30T09:21:57;101525.91;;;5.15;100.00
45357;BME280;31092;51.924;21.448;2024-01-30T09:24:22;101619.16;;;5.73;100.00
45357;BME280;31092;51.924;21.448;2024-01-30T09:26:48;101560.97;;;5.37;100.00
45357;BME280;31092;51.924;21.448;2024-01-30T09:29:13;101642.38;;;6.00;100.00
45357;BME280;31092;51.924;21.448;2024-01-30T09:31:39;101648.44;;;6.16;100.00
45357;BME280;31092;51.924;21.448;2024-01-30T09:34:04;101614.91;;;6.11;100.00
45357;BME280;31092;51.924;21.448;2024-01-30T09:36:29;101575.72;;;5.97;100.00
45357;BME280;31092;51.924;21.448;2024-01-30T09:38:55;101668.03;;;6.69;100.00
45357;BME280;31092;51.924;21.448;2024-01-30T09:41:23;101611.03;;;6.42;100.00
45357;BME280;31092;51.924;21.448;2024-01-30T09:43:50;101651.75;;;6.72;100.00
45357;BME280;31092;51.924;21.448;2024-01-30T09:46:17;101654.97;;;6.78;100.00
45357;BME280;31092;51.924;21.448;2024-01-30T09:48:48;101604.31;;;6.62;100.00
45357;BME280;31092;51.924;21.448;2024-01-30T09:51:16;101695.88;;;7.18;100.00
45357;BME280;31092;51.924;21.448;2024-01-30T09:53:43;101609.63;;;6.75;100.00
45357;BME280;31092;51.924;21.448;2024-01-30T09:56:12;101602.47;;;6.75;100.00
45357;BME280;31092;51.924;21.448;2024-01-30T09:58:38;101642.00;;;6.84;100.00
45357;BME280;31092;51.924;21.448;2024-01-30T10:01:05;101637.19;;;6.77;100.00
45357;BME280;31092;51.924;21.448;2024-01-30T10:03:31;101616.28;;;6.82;100.00
45357;BME280;31092;51.924;21.448;2024-01-30T10:05:56;101665.13;;;7.11;100.00
45357;BME280;31092;51.924;21.448;2024-01-30T10:08:22;101635.47;;;7.01;100.00
45357;BME280;31092;51.924;21.448;2024-01-30T10:10:49;101603.97;;;6.92;100.00
45357;BME280;31092;51.924;21.448;2024-01-30T10:13:17;101638.66;;;7.19;100.00
45357;BME280;31092;51.924;21.448;2024-01-30T10:15:43;101620.53;;;7.23;100.00
45357;BME280;31092;51.924;21.448;2024-01-30T10:18:10;101621.03;;;7.28;100.00
45357;BME280;31092;51.924;21.448;2024-01-30T10:20:35;101639.41;;;7.58;100.00
45357;BME280;31092;51.924;21.448;2024-01-30T10:23:01;101558.91;;;7.23;100.00
45357;BME280;31092;51.924;21.448;2024-01-30T10:25:27;101641.00;;;7.60;100.00
45357;BME280;31092;51.924;21.448;2024-01-30T10:27:53;101630.78;;;7.41;100.00
45357;BME280;31092;51.924;21.448;2024-01-30T10:30:21;101651.78;;;7.72;100.00
45357;BME280;31092;51.924;21.448;2024-01-30T10:32:46;101619.66;;;7.59;100.00
45357;BME280;31092;51.924;21.448;2024-01-30T10:35:12;101660.38;;;8.01;100.00
45357;BME280;31092;51.924;21.448;2024-01-30T10:37:37;101618.59;;;7.85;100.00
45357;BME280;31092;51.924;21.448;2024-01-30T10:40:03;101632.53;;;7.90;100.00
45357;BME280;31092;51.924;21.448;2024-01-30T10:42:31;101707.22;;;8.32;100.00
45357;BME280;31092;51.924;21.448;2024-01-30T10:45:06;101654.22;;;8.11;100.00
45357;BME280;31092;51.924;21.448;2024-01-30T10:47:35;101626.56;;;7.74;100.00
45357;BME280;31092;51.924;21.448;2024-01-30T10:50:04;101696.13;;;8.01;100.00
45357;BME280;31092;51.924;21.448;2024-01-30T10:52:31;101626.75;;;7.84;100.00
45357;BME280;31092;51.924;21.448;2024-01-30T10:54:58;101688.13;;;8.36;100.00
45357;BME280;31092;51.924;21.448;2024-01-30T10:57:26;101645.06;;;8.14;100.00
45357;BME280;31092;51.924;21.448;2024-01-30T10:59:59;101668.53;;;8.23;100.00
45357;BME280;31092;51.924;21.448;2024-01-30T11:02:26;101662.81;;;8.28;100.00
45357;BME280;31092;51.924;21.448;2024-01-30T11:04:57;101640.97;;;7.97;100.00
45357;BME280;31092;51.924;21.448;2024-01-30T11:07:25;101625.88;;;7.59;100.00
45357;BME280;31092;51.924;21.448;2024-01-30T11:12:26;101695.53;;;8.09;100.00
45357;BME280;31092;51.924;21.448;2024-01-30T11:15:09;101580.28;;;7.35;100.00
45357;BME280;31092;51.924;21.448;2024-01-30T11:20:20;101637.13;;;7.64;100.00
45357;BME280;31092;51.924;21.448;2024-01-30T11:22:46;101677.38;;;7.88;100.00
45357;BME280;31092;51.924;21.448;2024-01-30T11:25:17;101705.75;;;8.04;100.00
45357;BME280;31092;51.924;21.448;2024-01-30T11:27:43;101694.28;;;8.02;100.00
45357;BME280;31092;51.924;21.448;2024-01-30T11:30:09;101651.13;;;7.81;100.00
45357;BME280;31092;51.924;21.448;2024-01-30T11:32:35;101593.69;;;7.35;100.00
45357;BME280;31092;51.924;21.448;2024-01-30T11:35:05;101608.28;;;7.31;100.00
45357;BME280;31092;51.924;21.448;2024-01-30T11:37:37;101582.06;;;7.11;100.00
45357;BME280;31092;51.924;21.448;2024-01-30T11:40:06;101643.19;;;7.42;100.00
45357;BME280;31092;51.924;21.448;2024-01-30T11:42:32;101659.34;;;7.54;100.00
45357;BME280;31092;51.924;21.448;2024-01-30T11:45:00;101651.22;;;7.42;100.00
45357;BME280;31092;51.924;21.448;2024-01-30T11:47:26;101640.34;;;7.33;100.00
45357;BME280;31092;51.924;21.448;2024-01-30T11:49:51;101656.19;;;7.36;100.00
45357;BME280;31092;51.924;21.448;2024-01-30T11:52:17;101583.72;;;6.88;100.00
45357;BME280;31092;51.924;21.448;2024-01-30T11:54:42;101654.81;;;7.30;100.00
45357;BME280;31092;51.924;21.448;2024-01-30T11:57:08;101595.78;;;6.93;100.00
45357;BME280;31092;51.924;21.448;2024-01-30T11:59:34;101565.69;;;6.90;100.00
45357;BME280;31092;51.924;21.448;2024-01-30T12:01:59;101623.31;;;7.21;100.00
45357;BME280;31092;51.924;21.448;2024-01-30T12:04:28;101645.88;;;7.42;100.00
45357;BME280;31092;51.924;21.448;2024-01-30T12:06:54;101512.94;;;6.66;100.00
45357;BME280;31092;51.924;21.448;2024-01-30T12:09:20;101614.28;;;7.35;100.00
45357;BME280;31092;51.924;21.448;2024-01-30T12:11:48;101628.31;;;7.38;100.00
45357;BME280;31092;51.924;21.448;2024-01-30T12:14:17;101618.44;;;7.39;100.00
45357;BME280;31092;51.924;21.448;2024-01-30T12:16:48;101635.06;;;7.44;100.00
45357;BME280;31092;51.924;21.448;2024-01-30T12:19:21;101568.78;;;6.96;100.00
45357;BME280;31092;51.924;21.448;2024-01-30T12:21:47;101565.47;;;7.06;100.00
45357;BME280;31092;51.924;21.448;2024-01-30T12:24:12;101591.16;;;7.21;100.00
45357;BME280;31092;51.924;21.448;2024-01-30T12:26:38;101631.75;;;7.40;100.00
45357;BME280;31092;51.924;21.448;2024-01-30T12:29:03;101644.47;;;7.50;100.00
45357;BME280;31092;51.924;21.448;2024-01-30T12:31:32;101543.31;;;6.91;100.00
45357;BME280;31092;51.924;21.448;2024-01-30T12:33:59;101642.88;;;7.47;100.00